Time;durP1;ratioP1;P1;durP2;ratioP2;P2;SDS_P1;SDS_P2;PMS_P1;PMS_P2;Temp;Humidity;BMP_temperature;BMP_pressure;BME280_temperature;BME280_humidity;BME280_pressure;Samples;Min_cycle;Max_cycle;Signal;HPM_P1;HPM_P2
2024/01/30 00:00:11;;;;;;;;;;;;;;;0.74;92.72;101854.53;4928654;28;19934;-82
2024/01/30 00:02:38;;;;;;;;;;;;;;;0.73;93.02;101852.78;4929746;28;19926;-82
2024/01/30 00:05:05;;;;;;;;;;;;;;;0.70;92.85;101850.91;4921582;29;19942;-83
2024/01/30 00:07:32;;;;;;;;;;;;;;;0.56;92.56;101854.53;4927498;28;19995;-83
2024/01/30 00:09:58;;;;;;;;;;;;;;;0.42;92.40;101853.84;4924011;28;19934;-82
2024/01/30 00:12:26;;;;;;;;;;;;;;;0.25;91.83;101853.91;4907260;29;19931;-82
2024/01/30 00:14:52;;;;;;;;;;;;;;;0.10;91.38;101863.47;4925679;28;19983;-83
2024/01/30 00:17:20;;;;;;;;;;;;;;;0.09;91.28;101861.72;4916121;28;19958;-82
2024/01/30 00:19:47;;;;;;;;;;;;;;;0.11;90.94;101863.53;4921944;29;20310;-82
2024/01/30 00:22:14;;;;;;;;;;;;;;;0.12;90.60;101862.75;4926127;28;20005;-83
2024/01/30 00:24:41;;;;;;;;;;;;;;;0.01;90.72;101863.03;4915957;28;19933;-82
2024/01/30 00:27:08;;;;;;;;;;;;;;;0.07;91.17;101858.16;4923702;28;19926;-83
2024/01/30 00:29:34;;;;;;;;;;;;;;;0.16;91.31;101864.69;4911314;28;20035;-83
2024/01/30 00:32:01;;;;;;;;;;;;;;;0.12;90.64;101861.88;4908743;28;19938;-83
2024/01/30 00:34:27;;;;;;;;;;;;;;;0.06;89.94;101866.69;4917725;28;19927;-82
2024/01/30 00:36:54;;;;;;;;;;;;;;;-0.13;90.06;101863.22;4927416;29;19927;-84
2024/01/30 00:39:21;;;;;;;;;;;;;;;0.04;90.47;101869.22;4928380;28;19927;-83
2024/01/30 00:41:48;;;;;;;;;;;;;;;-0.03;89.51;101862.88;4925857;28;20026;-82
2024/01/30 00:44:14;;;;;;;;;;;;;;;-0.08;89.35;101869.47;4910710;28;19928;-82
2024/01/30 00:46:41;;;;;;;;;;;;;;;-0.04;89.91;101870.53;4901687;28;19931;-83
2024/01/30 00:49:08;;;;;;;;;;;;;;;0.03;89.88;101876.88;4926956;28;19937;-82
2024/01/30 00:51:34;;;;;;;;;;;;;;;-0.15;88.73;101872.53;4922297;28;19930;-83
2024/01/30 00:54:01;;;;;;;;;;;;;;;-0.13;89.40;101872.63;4908616;28;19932;-83
2024/01/30 00:56:28;;;;;;;;;;;;;;;-0.33;89.83;101874.16;4921941;29;19933;-82
2024/01/30 00:58:55;;;;;;;;;;;;;;;-0.22;89.95;101870.47;4927395;28;19935;-83
2024/01/30 01:01:22;;;;;;;;;;;;;;;-0.35;89.89;101874.09;4929207;29;19938;-83
2024/01/30 01:03:49;;;;;;;;;;;;;;;-0.29;90.46;101870.94;4928053;28;19931;-81
2024/01/30 01:06:15;;;;;;;;;;;;;;;-0.29;90.07;101866.69;4918585;29;19993;-82
2024/01/30 01:08:42;;;;;;;;;;;;;;;-0.28;90.79;101877.88;4926400;28;19927;-82
2024/01/30 01:11:09;;;;;;;;;;;;;;;-0.31;90.75;101870.00;4905267;29;20001;-83
2024/01/30 01:13:36;;;;;;;;;;;;;;;-0.43;90.20;101871.13;4924098;29;19927;-83
2024/01/30 01:16:03;;;;;;;;;;;;;;;-0.59;90.00;101863.38;4920898;29;20378;-82
2024/01/30 01:18:30;;;;;;;;;;;;;;;-0.50;90.40;101861.28;4902043;28;19927;-82
2024/01/30 01:20:57;;;;;;;;;;;;;;;-0.58;90.36;101865.13;4906759;29;20018;-81
2024/01/30 01:23:24;;;;;;;;;;;;;;;-0.64;90.86;101857.09;4910901;28;19939;-81
2024/01/30 01:25:50;;;;;;;;;;;;;;;-0.72;90.62;101860.13;4927639;28;19927;-81
2024/01/30 01:28:17;;;;;;;;;;;;;;;-0.79;90.68;101865.78;4920170;28;19934;-80
2024/01/30 01:30:44;;;;;;;;;;;;;;;-0.58;91.18;101860.88;4921556;28;19934;-82
2024/01/30 01:33:13;;;;;;;;;;;;;;;-0.39;92.39;101862.75;4910004;28;19932;-82
2024/01/30 01:35:41;;;;;;;;;;;;;;;-0.15;93.18;101859.66;4930096;28;19927;-82
2024/01/30 01:38:07;;;;;;;;;;;;;;;-0.18;93.50;101856.91;4911382;28;19927;-82
2024/01/30 01:40:34;;;;;;;;;;;;;;;-0.34;93.54;101855.22;4929137;28;20022;-80
2024/01/30 01:43:02;;;;;;;;;;;;;;;-0.27;93.69;101856.44;4928129;29;19934;-82
2024/01/30 01:45:29;;;;;;;;;;;;;;;-0.32;93.98;101857.88;4918644;28;20007;-82
2024/01/30 01:47:56;;;;;;;;;;;;;;;-0.16;94.09;101857.84;4909085;29;19942;-82
2024/01/30 01:50:24;;;;;;;;;;;;;;;-0.18;94.23;101856.91;4934792;28;19970;-80
2024/01/30 01:52:51;;;;;;;;;;;;;;;-0.16;94.52;101851.81;4929090;28;19933;-81
2024/01/30 01:55:18;;;;;;;;;;;;;;;-0.13;94.63;101855.47;4924465;29;19935;-81
2024/01/30 01:57:45;;;;;;;;;;;;;;;-0.31;94.49;101859.66;4927021;29;19927;-82
2024/01/30 02:00:12;;;;;;;;;;;;;;;-0.31;94.52;101859.66;4925633;29;20375;-80
2024/01/30 02:02:40;;;;;;;;;;;;;;;-0.34;94.43;101864.69;4927873;29;19949;-83
2024/01/30 02:05:08;;;;;;;;;;;;;;;-0.24;94.68;101861.75;4914736;29;20328;-82
2024/01/30 02:07:35;;;;;;;;;;;;;;;-0.21;94.75;101852.47;4927363;28;19969;-82
2024/01/30 02:10:03;;;;;;;;;;;;;;;-0.23;94.76;101863.53;4906679;28;19994;-83
2024/01/30 02:12:31;;;;;;;;;;;;;;;-0.11;95.04;101850.38;4914002;28;19945;-83
2024/01/30 02:14:59;;;;;;;;;;;;;;;-0.02;94.94;101851.72;4926402;29;19982;-82
2024/01/30 02:17:27;;;;;;;;;;;;;;;-0.05;94.89;101851.56;4926864;28;19982;-82
2024/01/30 02:19:55;;;;;;;;;;;;;;;-0.17;94.93;101848.38;4931880;28;19938;-82
2024/01/30 02:22:23;;;;;;;;;;;;;;;-0.26;94.82;101848.78;4930342;28;19926;-82
2024/01/30 02:24:50;;;;;;;;;;;;;;;-0.24;94.96;101851.44;4913995;29;19931;-83
2024/01/30 02:27:17;;;;;;;;;;;;;;;-0.17;95.08;101848.38;4913925;29;20064;-83
2024/01/30 02:29:44;;;;;;;;;;;;;;;-0.26;94.87;101851.38;4925771;28;19937;-82
2024/01/30 02:32:11;;;;;;;;;;;;;;;-0.29;94.83;101855.47;4917243;29;19958;-82
2024/01/30 02:34:41;;;;;;;;;;;;;;;-0.49;94.86;101842.44;4916208;29;19978;-83
2024/01/30 02:37:08;;;;;;;;;;;;;;;-0.38;94.57;101848.13;4917162;28;19942;-83
2024/01/30 02:39:36;;;;;;;;;;;;;;;-0.39;94.76;101849.84;4905458;29;20038;-81
2024/01/30 02:42:03;;;;;;;;;;;;;;;-0.48;94.50;101851.03;4914860;29;19962;-83
2024/01/30 02:44:30;;;;;;;;;;;;;;;-0.44;94.51;101850.41;4915116;29;19935;-82
2024/01/30 02:46:57;;;;;;;;;;;;;;;-0.45;94.59;101844.38;4905893;29;19927;-82
2024/01/30 02:49:25;;;;;;;;;;;;;;;-0.55;94.37;101844.66;4904479;29;20001;-82
2024/01/30 02:51:53;;;;;;;;;;;;;;;-0.57;94.42;101852.31;4908034;29;19986;-82
2024/01/30 02:54:20;;;;;;;;;;;;;;;-0.67;94.44;101844.03;4926522;28;19926;-81
2024/01/30 02:56:48;;;;;;;;;;;;;;;-0.72;94.13;101847.25;4915724;28;19931;-81
2024/01/30 02:59:15;;;;;;;;;;;;;;;-0.70;93.98;101849.91;4921848;28;20029;-82
2024/01/30 03:01:44;;;;;;;;;;;;;;;-0.66;94.33;101846.69;4910425;29;19927;-82
2024/01/30 03:04:12;;;;;;;;;;;;;;;-0.89;93.97;101848.03;4907974;29;19927;-82
2024/01/30 03:06:44;;;;;;;;;;;;;;;-0.84;93.75;101854.34;4928012;28;19940;-81
2024/01/30 03:09:11;;;;;;;;;;;;;;;-0.82;93.67;101844.09;4926149;28;20057;-82
2024/01/30 03:11:38;;;;;;;;;;;;;;;-0.90;93.68;101851.41;4925189;29;19974;-82
2024/01/30 03:14:06;;;;;;;;;;;;;;;-0.87;93.24;101856.72;4928414;28;19935;-81
2024/01/30 03:16:33;;;;;;;;;;;;;;;-1.08;92.99;101852.19;4923699;28;19937;-82
2024/01/30 03:19:02;;;;;;;;;;;;;;;-0.94;93.35;101850.38;4910740;29;19930;-80
2024/01/30 03:21:29;;;;;;;;;;;;;;;-0.90;93.21;101851.41;4928990;28;19933;-80
2024/01/30 03:23:57;;;;;;;;;;;;;;;-1.02;92.81;101848.19;4924563;28;20022;-82
2024/01/30 03:26:24;;;;;;;;;;;;;;;-0.98;93.07;101852.69;4922133;29;19931;-81
2024/01/30 03:28:51;;;;;;;;;;;;;;;-1.01;92.98;101847.34;4927794;28;19966;-82
2024/01/30 03:31:18;;;;;;;;;;;;;;;-0.93;93.25;101848.66;4923722;28;19933;-81
2024/01/30 03:33:46;;;;;;;;;;;;;;;-0.96;93.55;101845.94;4906930;29;20026;-81
2024/01/30 03:36:15;;;;;;;;;;;;;;;-1.05;93.35;101849.75;4922896;29;19933;-83
2024/01/30 03:38:42;;;;;;;;;;;;;;;-0.91;93.51;101849.66;4922101;28;19939;-81
2024/01/30 03:41:10;;;;;;;;;;;;;;;-1.05;93.39;101852.34;4922128;29;20029;-83
2024/01/30 03:43:37;;;;;;;;;;;;;;;-1.18;93.42;101847.31;4918885;28;19934;-82
2024/01/30 03:46:04;;;;;;;;;;;;;;;-1.11;93.23;101841.72;4906472;28;19975;-81
2024/01/30 03:48:32;;;;;;;;;;;;;;;-1.08;93.39;101848.72;4908829;28;19990;-83
2024/01/30 03:51:00;;;;;;;;;;;;;;;-1.01;93.68;101840.53;4927161;28;19926;-82
2024/01/30 03:53:28;;;;;;;;;;;;;;;-1.02;93.69;101841.31;4925038;28;19931;-82
2024/01/30 03:55:56;;;;;;;;;;;;;;;-1.14;93.63;101836.38;4924075;28;19934;-81
2024/01/30 03:58:24;;;;;;;;;;;;;;;-1.10;93.92;101834.84;4925019;28;19978;-82
2024/01/30 04:00:51;;;;;;;;;;;;;;;-1.12;93.70;101837.34;4923251;28;20092;-82
2024/01/30 04:03:19;;;;;;;;;;;;;;;-1.13;93.69;101838.19;4923077;28;19935;-82
2024/01/30 04:05:48;;;;;;;;;;;;;;;-1.19;93.55;101839.50;4924318;28;20290;-82
2024/01/30 04:08:15;;;;;;;;;;;;;;;-1.15;93.79;101844.03;4927332;29;19927;-82
2024/01/30 04:10:43;;;;;;;;;;;;;;;-1.19;93.93;101842.09;4925567;28;20417;-82
2024/01/30 04:13:12;;;;;;;;;;;;;;;-1.23;93.98;101857.38;4915358;29;19928;-82
2024/01/30 04:15:39;;;;;;;;;;;;;;;-1.21;93.61;101849.75;4910954;28;19927;-81
2024/01/30 04:18:08;;;;;;;;;;;;;;;-1.21;93.71;101848.84;4918682;28;19931;-81
2024/01/30 04:20:35;;;;;;;;;;;;;;;-1.26;93.40;101851.16;4919250;28;19999;-81
2024/01/30 04:23:02;;;;;;;;;;;;;;;-1.25;92.97;101855.50;4894355;29;19931;-82
2024/01/30 04:25:29;;;;;;;;;;;;;;;-1.28;92.85;101852.78;4922455;28;19946;-81
2024/01/30 04:27:57;;;;;;;;;;;;;;;-1.29;92.78;101853.56;4926889;28;19986;-83
2024/01/30 04:30:24;;;;;;;;;;;;;;;-1.22;92.33;101845.38;4923245;29;19937;-80
2024/01/30 04:32:50;;;;;;;;;;;;;;;-1.42;92.20;101850.31;4930619;28;19934;-82
2024/01/30 04:35:17;;;;;;;;;;;;;;;-1.49;92.12;101848.19;4931014;28;19930;-82
2024/01/30 04:37:44;;;;;;;;;;;;;;;-1.42;91.97;101857.13;4926043;28;19935;-82
2024/01/30 04:40:11;;;;;;;;;;;;;;;-1.47;92.12;101854.31;4930363;29;19926;-82
2024/01/30 04:42:37;;;;;;;;;;;;;;;-1.41;92.21;101854.66;4928760;28;20013;-82
2024/01/30 04:45:05;;;;;;;;;;;;;;;-1.52;92.00;101853.19;4932346;28;19927;-82
2024/01/30 04:47:31;;;;;;;;;;;;;;;-1.53;91.91;101851.41;4919072;28;20020;-82
2024/01/30 04:49:58;;;;;;;;;;;;;;;-1.42;91.83;101852.91;4912563;28;19931;-82
2024/01/30 04:52:25;;;;;;;;;;;;;;;-1.58;92.04;101850.22;4909244;28;19933;-82
2024/01/30 04:54:51;;;;;;;;;;;;;;;-1.54;91.88;101854.75;4920740;28;19927;-83
2024/01/30 04:57:18;;;;;;;;;;;;;;;-1.53;91.83;101851.41;4932231;28;19926;-81
2024/01/30 04:59:45;;;;;;;;;;;;;;;-1.54;91.75;101859.91;4935444;28;19945;-82
2024/01/30 05:02:12;;;;;;;;;;;;;;;-1.57;91.49;101860.63;4932022;29;20002;-81
2024/01/30 05:04:38;;;;;;;;;;;;;;;-1.60;91.39;101857.00;4920659;28;20010;-80
2024/01/30 05:07:05;;;;;;;;;;;;;;;-1.48;91.66;101860.25;4916205;29;19926;-81
2024/01/30 05:09:32;;;;;;;;;;;;;;;-1.48;91.82;101860.25;4916214;28;20010;-81
2024/01/30 05:11:59;;;;;;;;;;;;;;;-1.57;91.83;101859.75;4906522;29;19959;-82
2024/01/30 05:14:26;;;;;;;;;;;;;;;-1.61;91.86;101865.50;4907838;28;19942;-81
2024/01/30 05:16:52;;;;;;;;;;;;;;;-1.46;92.77;101862.94;4917476;28;19968;-82
2024/01/30 05:19:20;;;;;;;;;;;;;;;-1.38;92.99;101864.25;4912204;29;19935;-81
2024/01/30 05:21:47;;;;;;;;;;;;;;;-1.16;93.61;101858.63;4925490;28;19927;-84
2024/01/30 05:24:13;;;;;;;;;;;;;;;-1.15;93.87;101862.94;4928170;28;19945;-83
2024/01/30 05:26:40;;;;;;;;;;;;;;;-1.08;94.42;101867.63;4922439;28;19935;-84
2024/01/30 05:29:07;;;;;;;;;;;;;;;-1.05;94.70;101860.06;4918452;28;19931;-83
2024/01/30 05:31:34;;;;;;;;;;;;;;;-1.17;94.55;101868.81;4919609;29;20366;-83
2024/01/30 05:34:01;;;;;;;;;;;;;;;-1.23;94.72;101856.50;4930769;28;19934;-83
2024/01/30 05:36:28;;;;;;;;;;;;;;;-1.23;94.76;101867.69;4928868;28;19956;-82
2024/01/30 05:38:56;;;;;;;;;;;;;;;-1.12;94.88;101865.69;4931766;28;19927;-82
2024/01/30 05:41:22;;;;;;;;;;;;;;;-1.21;94.87;101870.34;4932142;29;20001;-83
2024/01/30 05:43:49;;;;;;;;;;;;;;;-1.21;95.07;101870.34;4930579;28;19933;-82
2024/01/30 05:46:16;;;;;;;;;;;;;;;-1.29;95.14;101872.50;4931223;28;19930;-83
2024/01/30 05:48:43;;;;;;;;;;;;;;;-1.24;95.24;101870.19;4930377;28;19927;-82
2024/01/30 05:51:10;;;;;;;;;;;;;;;-1.37;95.10;101878.03;4917044;28;19934;-83
2024/01/30 05:53:37;;;;;;;;;;;;;;;-1.35;95.01;101877.28;4910885;28;20027;-83
2024/01/30 05:56:04;;;;;;;;;;;;;;;-1.34;94.98;101873.91;4912477;28;19927;-83
2024/01/30 05:58:31;;;;;;;;;;;;;;;-1.20;95.15;101878.94;4926330;28;19930;-82
2024/01/30 06:00:58;;;;;;;;;;;;;;;-1.29;95.10;101877.66;4926558;28;19927;-83
2024/01/30 06:03:25;;;;;;;;;;;;;;;-1.28;95.32;101875.97;4932530;28;19934;-82
2024/01/30 06:05:51;;;;;;;;;;;;;;;-1.13;95.56;101874.25;4925883;28;19931;-83
2024/01/30 06:08:18;;;;;;;;;;;;;;;-1.00;95.70;101877.47;4926999;28;19986;-82
2024/01/30 06:10:45;;;;;;;;;;;;;;;-1.01;95.87;101874.03;4911452;28;19966;-82
2024/01/30 06:13:12;;;;;;;;;;;;;;;-0.99;95.84;101874.13;4928661;28;19927;-82
2024/01/30 06:15:39;;;;;;;;;;;;;;;-1.09;95.78;101860.69;4930440;28;19927;-83
2024/01/30 06:18:06;;;;;;;;;;;;;;;-1.08;95.76;101861.63;4928196;28;19990;-81
2024/01/30 06:20:33;;;;;;;;;;;;;;;-0.99;96.06;101866.38;4933497;28;19926;-81
2024/01/30 06:23:00;;;;;;;;;;;;;;;-0.99;95.85;101864.69;4936393;28;19979;-83
2024/01/30 06:25:27;;;;;;;;;;;;;;;-0.93;96.17;101858.97;4931508;28;19927;-83
2024/01/30 06:27:54;;;;;;;;;;;;;;;-1.01;96.12;101858.56;4928080;29;20076;-83
2024/01/30 06:30:21;;;;;;;;;;;;;;;-1.02;96.20;101855.91;4926984;28;20017;-82
2024/01/30 06:32:47;;;;;;;;;;;;;;;-1.09;96.03;101855.53;4938376;28;19927;-82
2024/01/30 06:35:14;;;;;;;;;;;;;;;-1.09;96.20;101855.53;4934185;29;19927;-81
2024/01/30 06:37:41;;;;;;;;;;;;;;;-0.97;96.26;101857.03;4932719;28;19927;-82
2024/01/30 06:40:08;;;;;;;;;;;;;;;-0.97;96.17;101862.19;4910847;28;20402;-83
2024/01/30 06:42:35;;;;;;;;;;;;;;;-1.02;96.32;101861.06;4914179;28;19927;-83
2024/01/30 06:45:02;;;;;;;;;;;;;;;-1.00;96.40;101860.34;4913837;28;19927;-82
2024/01/30 06:47:29;;;;;;;;;;;;;;;-0.87;96.42;101867.03;4930536;28;19934;-82
2024/01/30 06:49:55;;;;;;;;;;;;;;;-0.94;96.49;101868.41;4932363;29;19933;-84
2024/01/30 06:52:22;;;;;;;;;;;;;;;-1.06;96.35;101858.31;4926969;28;19930;-82
2024/01/30 06:54:49;;;;;;;;;;;;;;;-1.02;96.49;101858.50;4927575;28;20029;-83
2024/01/30 06:57:16;;;;;;;;;;;;;;;-1.09;96.32;101864.97;4914370;28;19977;-83
2024/01/30 06:59:43;;;;;;;;;;;;;;;-0.99;96.50;101861.22;4928197;28;19935;-82
2024/01/30 07:02:11;;;;;;;;;;;;;;;-1.02;96.53;101868.78;4904219;29;19931;-82
2024/01/30 07:04:39;;;;;;;;;;;;;;;-1.15;96.54;101870.69;4933366;28;20474;-82
2024/01/30 07:07:12;;;;;;;;;;;;;;;-1.09;96.54;101863.28;4927425;28;19927;-82
2024/01/30 07:09:40;;;;;;;;;;;;;;;-1.05;96.46;101862.66;4914971;28;19926;-82
2024/01/30 07:12:06;;;;;;;;;;;;;;;-1.08;96.59;101867.63;4923675;28;19956;-83
2024/01/30 07:14:33;;;;;;;;;;;;;;;-1.08;96.49;101872.78;4927115;28;19934;-83
2024/01/30 07:17:00;;;;;;;;;;;;;;;-1.03;96.70;101864.44;4925876;28;20363;-83
2024/01/30 07:19:27;;;;;;;;;;;;;;;-0.88;96.69;101867.84;4929585;28;20075;-83
2024/01/30 07:21:54;;;;;;;;;;;;;;;-0.96;96.55;101866.53;4931322;28;19931;-84
2024/01/30 07:24:20;;;;;;;;;;;;;;;-0.90;96.66;101872.03;4935286;28;19930;-83
2024/01/30 07:26:47;;;;;;;;;;;;;;;-1.00;96.72;101869.75;4926121;28;19950;-83
2024/01/30 07:29:14;;;;;;;;;;;;;;;-0.80;96.83;101874.28;4931003;28;19927;-82
2024/01/30 07:31:41;;;;;;;;;;;;;;;-0.89;96.80;101873.81;4932926;28;19927;-83
2024/01/30 07:34:08;;;;;;;;;;;;;;;-0.77;96.98;101871.91;4925952;28;19931;-84
2024/01/30 07:36:35;;;;;;;;;;;;;;;-0.71;96.76;101872.22;4920486;29;19973;-87
2024/01/30 07:39:06;;;;;;;;;;;;;;;-0.74;96.81;101878.91;4927483;28;19934;-85
2024/01/30 07:41:33;;;;;;;;;;;;;;;-0.65;96.94;101876.84;4930388;29;19986;-85
2024/01/30 07:44:00;;;;;;;;;;;;;;;-0.46;96.97;101870.97;4928858;28;19935;-86
2024/01/30 07:46:27;;;;;;;;;;;;;;;-0.47;97.02;101878.63;4931047;28;19934;-85
2024/01/30 07:48:55;;;;;;;;;;;;;;;-0.45;96.97;101870.16;4944561;28;19977;-84
2024/01/30 07:51:22;;;;;;;;;;;;;;;-0.38;97.07;101885.16;4927745;28;19927;-85
2024/01/30 07:53:49;;;;;;;;;;;;;;;-0.40;97.01;101881.59;4914429;29;20022;-86
2024/01/30 07:56:16;;;;;;;;;;;;;;;-0.36;97.07;101887.81;4931796;28;19930;-86
2024/01/30 07:58:44;;;;;;;;;;;;;;;-0.26;96.95;101899.47;4926271;28;19927;-85
2024/01/30 08:01:11;;;;;;;;;;;;;;;-0.28;97.04;101903.69;4918165;29;19967;-86
2024/01/30 08:03:40;;;;;;;;;;;;;;;-0.19;96.92;101901.56;4908325;28;19927;-85
2024/01/30 08:06:07;;;;;;;;;;;;;;;-0.36;96.81;101899.00;4907360;28;19934;-86
2024/01/30 08:08:34;;;;;;;;;;;;;;;-0.27;97.06;101898.59;4918723;28;20011;-87
2024/01/30 08:11:00;;;;;;;;;;;;;;;-0.17;97.07;101902.56;4929161;28;19997;-86
2024/01/30 08:13:27;;;;;;;;;;;;;;;-0.14;96.92;101899.25;4928322;28;19934;-88
2024/01/30 08:15:54;;;;;;;;;;;;;;;-0.09;97.04;101903.81;4931233;28;19933;-88
2024/01/30 08:18:21;;;;;;;;;;;;;;;-0.19;96.96;101906.72;4932925;28;19978;-87
2024/01/30 08:20:49;;;;;;;;;;;;;;;-0.26;96.91;101904.63;4928496;28;19986;-89
2024/01/30 08:23:15;;;;;;;;;;;;;;;-0.26;96.64;101899.47;4930556;28;20386;-86
2024/01/30 08:25:42;;;;;;;;;;;;;;;-0.18;96.82;101906.81;4930433;28;19962;-88
2024/01/30 08:28:09;;;;;;;;;;;;;;;-0.14;96.80;101905.28;4928588;28;19927;-87
2024/01/30 08:30:35;;;;;;;;;;;;;;;-0.18;96.73;101900.78;4910890;28;19931;-87
2024/01/30 08:33:02;;;;;;;;;;;;;;;-0.05;96.85;101900.59;4898687;28;20022;-86
2024/01/30 08:35:31;;;;;;;;;;;;;;;-0.09;96.79;101898.66;4916480;29;20034;-86
2024/01/30 08:37:58;;;;;;;;;;;;;;;-0.07;96.81;101915.13;4928134;28;19982;-87
2024/01/30 08:40:24;;;;;;;;;;;;;;;-0.07;96.56;101904.81;4911283;28;19962;-87
2024/01/30 08:42:51;;;;;;;;;;;;;;;-0.02;96.59;101913.66;4896667;29;19931;-87
2024/01/30 08:45:18;;;;;;;;;;;;;;;0.08;96.36;101914.16;4911711;29;19977;-86
2024/01/30 08:47:45;;;;;;;;;;;;;;;0.10;96.58;101913.44;4926617;28;19935;-86
2024/01/30 08:50:12;;;;;;;;;;;;;;;0.21;96.51;101913.09;4928804;29;19927;-87
2024/01/30 08:52:39;;;;;;;;;;;;;;;0.23;96.43;101919.19;4933743;28;19926;-86
2024/01/30 08:55:06;;;;;;;;;;;;;;;0.30;96.43;101917.00;4913833;28;19927;-87
2024/01/30 08:57:32;;;;;;;;;;;;;;;0.36;96.43;101913.84;4928142;28;19989;-88
2024/01/30 09:00:00;;;;;;;;;;;;;;;0.45;96.48;101913.41;4923488;29;20151;-87
2024/01/30 09:02:27;;;;;;;;;;;;;;;0.44;96.19;101906.50;4905300;29;19931;-87
2024/01/30 09:04:53;;;;;;;;;;;;;;;0.48;96.22;101908.41;4925113;29;19926;-87
2024/01/30 09:07:20;;;;;;;;;;;;;;;0.48;96.32;101913.59;4911894;28;19927;-87
2024/01/30 09:09:49;;;;;;;;;;;;;;;0.55;96.22;101913.09;4924593;29;19927;-87
2024/01/30 09:12:15;;;;;;;;;;;;;;;0.54;96.19;101916.47;4922236;28;19937;-90
2024/01/30 09:14:42;;;;;;;;;;;;;;;0.64;96.17;101916.09;4926458;28;19927;-87
2024/01/30 09:17:09;;;;;;;;;;;;;;;0.69;96.15;101919.78;4916517;29;19927;-87
2024/01/30 09:19:35;;;;;;;;;;;;;;;0.77;96.32;101922.75;4929136;28;19930;-88
2024/01/30 09:22:03;;;;;;;;;;;;;;;0.90;96.18;101920.75;4919456;28;19926;-87
2024/01/30 09:24:30;;;;;;;;;;;;;;;0.97;96.20;101921.16;4930354;28;19931;-87
2024/01/30 09:26:56;;;;;;;;;;;;;;;1.08;95.98;101913.00;4927926;28;19931;-85
2024/01/30 09:29:23;;;;;;;;;;;;;;;1.17;96.10;101914.34;4923676;28;19926;-86
2024/01/30 09:31:50;;;;;;;;;;;;;;;1.18;95.98;101910.03;4932156;28;19931;-86
2024/01/30 09:34:16;;;;;;;;;;;;;;;1.20;95.74;101914.47;4932966;28;19949;-86
2024/01/30 09:36:43;;;;;;;;;;;;;;;1.30;95.56;101920.06;4925433;28;20068;-87
2024/01/30 09:39:10;;;;;;;;;;;;;;;1.39;95.47;101923.06;4931861;28;20370;-87
2024/01/30 09:41:41;;;;;;;;;;;;;;;1.59;95.37;101930.88;4925805;29;19985;-87
2024/01/30 09:44:07;;;;;;;;;;;;;;;1.70;95.29;101925.34;4936276;28;19927;-88
2024/01/30 09:46:34;;;;;;;;;;;;;;;1.77;95.12;101929.13;4930877;29;20011;-87
2024/01/30 09:49:01;;;;;;;;;;;;;;;1.92;94.98;101922.00;4934961;28;19943;-87
2024/01/30 09:51:27;;;;;;;;;;;;;;;2.05;94.82;101931.19;4934178;28;19937;-87
2024/01/30 09:53:54;;;;;;;;;;;;;;;2.07;94.66;101929.59;4923851;29;19933;-87
2024/01/30 09:56:21;;;;;;;;;;;;;;;2.24;94.70;101938.06;4928724;29;19927;-87
2024/01/30 09:58:48;;;;;;;;;;;;;;;2.35;94.27;101943.72;4930822;28;19927;-87
2024/01/30 10:01:18;;;;;;;;;;;;;;;2.41;93.93;101937.91;4934707;28;19927;-85
2024/01/30 10:03:46;;;;;;;;;;;;;;;2.47;93.60;101942.47;4927529;29;19958;-87
2024/01/30 10:06:13;;;;;;;;;;;;;;;2.64;93.44;101933.69;4922059;28;20035;-88
2024/01/30 10:08:40;;;;;;;;;;;;;;;2.72;93.24;101929.72;4913250;29;19937;-87
2024/01/30 10:11:07;;;;;;;;;;;;;;;2.80;93.05;101927.41;4925534;29;19927;-87
2024/01/30 10:13:33;;;;;;;;;;;;;;;2.85;92.35;101922.41;4902482;29;19927;-88
2024/01/30 10:16:02;;;;;;;;;;;;;;;2.99;92.18;101936.81;4932143;28;20010;-87
2024/01/30 10:18:29;;;;;;;;;;;;;;;3.03;91.47;101928.34;4929180;29;19927;-87
2024/01/30 10:20:56;;;;;;;;;;;;;;;3.10;91.17;101921.66;4931763;28;19926;-88
2024/01/30 10:23:23;;;;;;;;;;;;;;;3.22;90.71;101927.34;4931339;28;19998;-87
2024/01/30 10:25:51;;;;;;;;;;;;;;;3.34;90.43;101924.34;4927682;29;20278;-87
2024/01/30 10:28:17;;;;;;;;;;;;;;;3.51;90.61;101931.91;4924105;28;19927;-89
2024/01/30 10:30:44;;;;;;;;;;;;;;;3.57;90.14;101927.81;4931867;28;19942;-87
2024/01/30 10:33:11;;;;;;;;;;;;;;;3.59;89.59;101917.47;4935143;28;19927;-87
2024/01/30 10:35:38;;;;;;;;;;;;;;;3.75;89.07;101912.03;4929867;29;20386;-88
2024/01/30 10:38:05;;;;;;;;;;;;;;;3.92;88.89;101909.16;4929340;28;20021;-86
2024/01/30 10:40:32;;;;;;;;;;;;;;;4.22;88.81;101911.06;4934806;29;19927;-88
2024/01/30 10:42:59;;;;;;;;;;;;;;;4.24;88.74;101912.00;4923969;29;19926;-86
2024/01/30 10:45:27;;;;;;;;;;;;;;;4.20;87.82;101900.63;4930235;28;19970;-87
2024/01/30 10:47:56;;;;;;;;;;;;;;;4.24;87.79;101912.88;4920565;29;20022;-87
2024/01/30 10:50:23;;;;;;;;;;;;;;;4.25;87.78;101913.78;4931460;28;20013;-87
2024/01/30 10:52:50;;;;;;;;;;;;;;;4.40;87.25;101914.28;4930253;29;19930;-87
2024/01/30 10:55:17;;;;;;;;;;;;;;;4.48;86.56;101923.22;4928302;29;19934;-86
2024/01/30 10:57:44;;;;;;;;;;;;;;;4.58;86.49;101907.94;4918265;29;20003;-87
2024/01/30 11:00:12;;;;;;;;;;;;;;;4.69;86.24;101901.34;4927206;28;19937;-87
2024/01/30 11:02:43;;;;;;;;;;;;;;;5.08;86.63;101897.38;4922257;28;19982;-87
2024/01/30 11:05:10;;;;;;;;;;;;;;;5.15;85.12;101913.22;4923422;29;20034;-87
2024/01/30 11:07:38;;;;;;;;;;;;;;;5.24;84.34;101912.63;4927725;28;19926;-87
2024/01/30 11:10:09;;;;;;;;;;;;;;;5.39;84.45;101907.88;4922721;28;20424;-87
2024/01/30 11:12:43;;;;;;;;;;;;;;;5.54;83.95;101906.56;4920359;29;19931;-87
2024/01/30 11:15:12;;;;;;;;;;;;;;;5.55;83.77;101909.22;4931187;28;19958;-87
2024/01/30 11:17:43;;;;;;;;;;;;;;;5.72;84.35;101903.59;4936044;28;20013;-87
2024/01/30 11:20:22;;;;;;;;;;;;;;;5.81;83.49;101909.06;4925121;29;19944;-86
2024/01/30 11:22:51;;;;;;;;;;;;;;;5.84;83.17;101906.56;4926128;28;19977;-88
2024/01/30 11:25:19;;;;;;;;;;;;;;;5.88;84.06;101907.50;4928668;28;19937;-87
2024/01/30 11:27:46;;;;;;;;;;;;;;;5.85;83.03;101905.72;4926362;28;20302;-87
2024/01/30 11:30:22;;;;;;;;;;;;;;;5.93;83.29;101900.72;4926650;28;19938;-87
2024/01/30 11:33:04;;;;;;;;;;;;;;;6.01;83.24;101887.91;4927092;28;20022;-87
2024/01/30 11:35:32;;;;;;;;;;;;;;;6.10;82.72;101880.34;4927467;28;19938;-87
2024/01/30 11:37:59;;;;;;;;;;;;;;;6.17;82.84;101877.06;4930104;28;19927;-87
2024/01/30 11:40:27;;;;;;;;;;;;;;;6.21;82.39;101880.63;4930364;28;19935;-87
2024/01/30 11:42:54;;;;;;;;;;;;;;;6.30;81.75;101879.97;4928324;28;19927;-87
2024/01/30 11:45:21;;;;;;;;;;;;;;;6.40;81.59;101871.53;4924169;29;19930;-87
2024/01/30 11:47:48;;;;;;;;;;;;;;;6.56;82.12;101871.09;4926268;28;19933;-87
2024/01/30 11:50:14;;;;;;;;;;;;;;;6.65;81.63;101851.25;4913722;28;19950;-87
2024/01/30 11:52:42;;;;;;;;;;;;;;;6.70;81.34;101854.88;4930485;28;19973;-87
2024/01/30 11:55:09;;;;;;;;;;;;;;;6.75;80.13;101845.44;4923804;29;19927;-87
2024/01/30 11:57:36;;;;;;;;;;;;;;;6.90;80.47;101848.38;4928744;28;19931;-87
2024/01/30 12:00:10;;;;;;;;;;;;;;;6.93;79.78;101842.38;4923170;29;19981;-86
2024/01/30 12:02:37;;;;;;;;;;;;;;;6.96;79.21;101838.06;4922507;28;19931;-86
2024/01/30 12:05:06;;;;;;;;;;;;;;;7.15;77.26;101833.25;4913868;29;19946;-86
2024/01/30 12:07:33;;;;;;;;;;;;;;;7.23;76.09;101836.91;4929755;29;19927;-87
2024/01/30 12:10:00;;;;;;;;;;;;;;;7.35;76.53;101838.03;4930614;28;20017;-86
2024/01/30 12:12:27;;;;;;;;;;;;;;;7.36;75.77;101832.84;4929766;28;19961;-88
2024/01/30 12:14:54;;;;;;;;;;;;;;;7.48;76.21;101833.06;4920681;29;19933;-88
2024/01/30 12:17:24;;;;;;;;;;;;;;;7.63;74.95;101837.75;4915327;28;19933;-87
2024/01/30 12:19:51;;;;;;;;;;;;;;;7.64;75.19;101844.69;4913190;29;19927;-86
2024/01/30 12:22:18;;;;;;;;;;;;;;;7.81;74.04;101837.19;4922095;29;19927;-86
2024/01/30 12:24:45;;;;;;;;;;;;;;;7.85;74.65;101843.38;4918437;29;19927;-86
2024/01/30 12:27:14;;;;;;;;;;;;;;;7.94;74.03;101833.06;4921848;28;19978;-86
2024/01/30 12:29:42;;;;;;;;;;;;;;;8.01;74.24;101840.16;4925108;29;19927;-85
2024/01/30 12:32:08;;;;;;;;;;;;;;;8.06;73.73;101827.19;4910195;29;19927;-86
2024/01/30 12:34:40;;;;;;;;;;;;;;;8.11;74.58;101827.25;4922585;28;20143;-86
2024/01/30 12:37:24;;;;;;;;;;;;;;;8.10;72.96;101836.84;4905494;29;19959;-86
2024/01/30 12:39:53;;;;;;;;;;;;;;;8.15;72.84;101826.44;4924830;28;19927;-86